createdAt,value
2019-03-29T00:03:31.220Z,9.93
2019-03-29T00:05:59.595Z,9.93
2019-03-29T00:08:28.254Z,9.94
2019-03-29T00:10:56.639Z,9.97
2019-03-29T00:13:25.133Z,9.97
2019-03-29T00:16:33.819Z,9.94
2019-03-29T00:19:02.467Z,9.91
2019-03-29T00:21:30.907Z,9.86
2019-03-29T00:24:06.790Z,9.85
2019-03-29T00:26:29.566Z,9.84
2019-03-29T00:28:57.948Z,9.84
2019-03-29T00:31:26.603Z,9.87
2019-03-29T00:37:03.199Z,9.88
2019-03-29T00:39:31.668Z,9.88
2019-03-29T00:42:00.220Z,9.91
2019-03-29T00:44:28.635Z,9.90
2019-03-29T00:46:57.493Z,9.88
2019-03-29T00:49:25.980Z,9.86
2019-03-29T00:51:54.440Z,9.87
2019-03-29T00:54:22.993Z,9.87
2019-03-29T00:56:51.735Z,9.88
2019-03-29T00:59:20.151Z,9.84
2019-03-29T01:01:48.632Z,9.79
2019-03-29T01:04:17.233Z,9.73
2019-03-29T01:06:46.179Z,9.75
2019-03-29T01:09:14.609Z,9.78
2019-03-29T01:11:43.348Z,9.77
2019-03-29T01:14:11.828Z,9.71
2019-03-29T01:16:40.311Z,9.70
2019-03-29T01:19:08.875Z,9.71
2019-03-29T01:21:37.435Z,9.65
2019-03-29T01:24:05.886Z,9.63
2019-03-29T01:26:34.446Z,9.59
2019-03-29T01:29:03.004Z,9.58
2019-03-29T01:31:31.818Z,9.56
2019-03-29T01:34:00.289Z,9.58
2019-03-29T01:36:28.803Z,9.60
2019-03-29T01:38:57.571Z,9.58
2019-03-29T01:41:27.118Z,9.62
2019-03-29T01:43:56.575Z,9.61
2019-03-29T01:46:25.126Z,9.63
2019-03-29T01:48:53.953Z,9.65
2019-03-29T01:51:22.503Z,9.60
2019-03-29T01:53:51.000Z,9.61
2019-03-29T01:56:19.555Z,9.60
2019-03-29T01:58:48.125Z,9.59
2019-03-29T02:01:16.987Z,9.62
2019-03-29T02:03:45.378Z,9.68
2019-03-29T02:06:13.834Z,9.67
2019-03-29T02:08:42.383Z,9.68
2019-03-29T02:11:10.909Z,9.70
2019-03-29T02:13:39.397Z,9.67
2019-03-29T02:16:07.930Z,9.65
2019-03-29T02:18:36.415Z,9.66
2019-03-29T02:21:04.852Z,9.61
2019-03-29T02:23:33.390Z,9.60
2019-03-29T02:26:02.220Z,9.62
2019-03-29T02:28:30.614Z,9.62
2019-03-29T02:30:59.774Z,9.61
2019-03-29T02:33:29.303Z,9.64
2019-03-29T02:35:57.805Z,9.64
2019-03-29T02:38:26.317Z,9.67
2019-03-29T02:40:54.854Z,9.69
2019-03-29T02:43:23.641Z,9.66
2019-03-29T02:45:52.095Z,9.69
2019-03-29T02:48:20.586Z,9.68
2019-03-29T02:50:49.106Z,9.65
2019-03-29T02:53:17.565Z,9.59
2019-03-29T02:55:45.967Z,9.61
2019-03-29T02:58:14.842Z,9.63
2019-03-29T03:00:43.299Z,9.63
2019-03-29T03:03:11.857Z,9.63
2019-03-29T03:05:40.425Z,9.64
2019-03-29T03:08:08.948Z,9.63
2019-03-29T03:10:37.479Z,9.63
2019-03-29T03:13:05.867Z,9.64
2019-03-29T03:15:34.298Z,9.63
2019-03-29T03:18:02.802Z,9.68
2019-03-29T03:20:31.242Z,9.68
2019-03-29T03:22:59.705Z,9.71
2019-03-29T03:25:28.662Z,9.69
2019-03-29T03:27:57.195Z,9.67
2019-03-29T03:30:25.789Z,9.69
2019-03-29T03:32:54.268Z,9.68
2019-03-29T03:35:23.117Z,9.67
2019-03-29T03:37:51.571Z,9.66
2019-03-29T03:40:20.105Z,9.64
2019-03-29T03:42:48.564Z,9.60
2019-03-29T03:45:17.121Z,9.60
2019-03-29T03:47:45.823Z,9.53
2019-03-29T03:50:35.118Z,9.54
2019-03-29T03:53:03.616Z,9.58
2019-03-29T03:56:12.052Z,9.60
2019-03-29T03:59:20.524Z,9.59
2019-03-29T04:01:48.998Z,9.60
2019-03-29T04:04:17.683Z,9.62
2019-03-29T04:06:46.045Z,9.65
2019-03-29T04:09:14.660Z,9.67
2019-03-29T04:11:43.335Z,9.69
2019-03-29T04:14:11.850Z,9.73
2019-03-29T04:16:40.226Z,9.76
2019-03-29T04:19:08.745Z,9.77
2019-03-29T04:21:37.167Z,9.77
2019-03-29T04:24:05.558Z,9.78
2019-03-29T04:26:34.229Z,9.78
2019-03-29T04:29:04.690Z,9.79
2019-03-29T04:31:32.824Z,9.78
2019-03-29T04:34:01.172Z,9.78
2019-03-29T04:36:29.595Z,9.80
2019-03-29T04:38:58.379Z,9.79
2019-03-29T04:41:27.171Z,9.80
2019-03-29T04:43:55.962Z,9.70
2019-03-29T04:46:24.412Z,9.67
2019-03-29T04:48:53.138Z,9.63
2019-03-29T04:51:21.602Z,9.63
2019-03-29T04:53:50.406Z,9.64
2019-03-29T04:56:18.950Z,9.67
2019-03-29T05:01:23.227Z,9.59
2019-03-29T05:03:51.589Z,9.59
2019-03-29T05:06:20.004Z,9.60
2019-03-29T05:08:48.775Z,9.62
2019-03-29T05:11:17.351Z,9.65
2019-03-29T05:13:46.046Z,9.58
2019-03-29T05:16:14.576Z,9.55
2019-03-29T05:18:43.127Z,9.56
2019-03-29T05:21:11.530Z,9.61
2019-03-29T05:23:40.022Z,9.65
2019-03-29T05:26:08.876Z,9.69
2019-03-29T05:28:37.671Z,9.70
2019-03-29T05:31:06.071Z,9.68
2019-03-29T05:33:34.587Z,9.72
2019-03-29T05:36:03.232Z,9.76
2019-03-29T05:38:31.607Z,9.76
2019-03-29T05:41:00.063Z,9.80
2019-03-29T05:43:28.530Z,9.83
2019-03-29T05:45:56.995Z,9.85
2019-03-29T05:48:25.428Z,9.81
2019-03-29T05:50:53.856Z,9.79
2019-03-29T05:53:22.384Z,9.79
2019-03-29T05:55:50.878Z,9.81
2019-03-29T05:58:19.331Z,9.86
2019-03-29T06:00:47.967Z,9.89
2019-03-29T06:03:16.491Z,9.94
2019-03-29T06:06:24.989Z,9.96
2019-03-29T06:08:53.516Z,9.89
2019-03-29T06:11:21.976Z,9.90
2019-03-29T06:13:50.533Z,9.88
2019-03-29T06:16:19.099Z,9.91
2019-03-29T06:18:47.467Z,9.96
2019-03-29T06:21:16.027Z,9.99
2019-03-29T06:23:44.502Z,10.01
2019-03-29T06:26:12.984Z,10.00
2019-03-29T06:28:41.532Z,10.06
2019-03-29T06:31:10.377Z,10.06
2019-03-29T06:33:38.838Z,10.05
2019-03-29T06:36:47.567Z,10.08
2019-03-29T06:39:55.966Z,10.15
2019-03-29T06:42:24.497Z,10.14
2019-03-29T06:44:53.179Z,10.23
2019-03-29T06:47:21.649Z,10.28
2019-03-29T06:49:50.554Z,10.28
2019-03-29T06:52:19.102Z,10.29
2019-03-29T06:54:47.545Z,10.32
2019-03-29T06:57:16.105Z,10.40
2019-03-29T06:59:44.495Z,10.48
2019-03-29T07:02:13.264Z,10.44
2019-03-29T07:04:41.757Z,10.39
2019-03-29T07:07:10.327Z,10.44
2019-03-29T07:09:38.789Z,10.40
2019-03-29T07:12:07.596Z,10.36
2019-03-29T07:14:36.053Z,10.39
2019-03-29T07:17:04.541Z,10.35
2019-03-29T07:19:32.957Z,10.27
2019-03-29T07:22:02.411Z,10.29
2019-03-29T07:24:30.979Z,10.32
2019-03-29T07:26:59.504Z,10.34
2019-03-29T07:29:28.015Z,10.40
2019-03-29T07:31:56.546Z,10.46
2019-03-29T07:34:25.226Z,10.49
2019-03-29T07:36:53.713Z,10.54
2019-03-29T07:39:22.475Z,10.60
2019-03-29T07:41:51.445Z,10.61
2019-03-29T07:44:20.304Z,10.69
2019-03-29T07:46:49.076Z,10.69
2019-03-29T07:49:17.804Z,10.57
2019-03-29T07:51:46.608Z,10.66
2019-03-29T07:54:15.342Z,10.68
2019-03-29T07:56:44.134Z,10.74
2019-03-29T07:59:12.932Z,10.78
2019-03-29T08:01:41.966Z,10.79
2019-03-29T08:04:10.900Z,10.80
2019-03-29T08:06:40.023Z,10.86
2019-03-29T08:09:21.680Z,10.85
2019-03-29T08:11:46.135Z,10.83
2019-03-29T08:14:10.109Z,10.82
2019-03-29T08:16:38.852Z,10.83
2019-03-29T08:19:07.661Z,10.74
2019-03-29T08:21:36.222Z,10.68
2019-03-29T08:24:04.765Z,10.73
2019-03-29T08:26:33.137Z,10.80
2019-03-29T08:29:01.630Z,10.83
2019-03-29T08:31:30.154Z,10.89
2019-03-29T08:33:58.767Z,10.89
2019-03-29T08:36:27.298Z,10.91
2019-03-29T08:38:55.798Z,10.92
2019-03-29T08:41:24.358Z,10.84
2019-03-29T08:43:52.823Z,10.78
2019-03-29T08:46:21.293Z,10.88
2019-03-29T08:48:50.053Z,10.87
2019-03-29T08:51:18.586Z,10.93
2019-03-29T08:53:47.101Z,10.96
2019-03-29T08:56:15.585Z,10.90
2019-03-29T08:58:46.506Z,10.90
2019-03-29T09:01:14.456Z,10.92
2019-03-29T09:04:22.906Z,10.97
2019-03-29T09:06:53.744Z,10.94
2019-03-29T09:09:21.640Z,11.08
2019-03-29T09:11:50.146Z,11.04
2019-03-29T09:14:18.658Z,10.88
2019-03-29T09:16:47.283Z,10.95
2019-03-29T09:19:16.108Z,10.97
2019-03-29T09:21:44.688Z,10.97
2019-03-29T09:24:21.963Z,11.07
2019-03-29T09:26:43.969Z,11.12
2019-03-29T09:29:13.077Z,11.08
2019-03-29T09:31:41.865Z,11.00
2019-03-29T09:34:10.459Z,10.99
2019-03-29T09:36:38.940Z,11.07
2019-03-29T09:39:07.606Z,11.01
2019-03-29T09:41:36.192Z,11.08
2019-03-29T09:44:04.736Z,11.11
2019-03-29T09:46:33.240Z,11.25
2019-03-29T09:49:01.819Z,11.20
2019-03-29T09:51:30.679Z,11.25
2019-03-29T09:53:59.475Z,11.24
2019-03-29T09:56:38.715Z,11.24
2019-03-29T09:58:58.033Z,11.32
2019-03-29T10:01:26.476Z,11.45
2019-03-29T10:03:55.168Z,11.54
2019-03-29T10:06:24.061Z,11.66
2019-03-29T10:08:53.474Z,11.76
2019-03-29T10:11:22.921Z,11.72
2019-03-29T10:13:51.372Z,11.62
2019-03-29T10:16:20.218Z,11.60
2019-03-29T10:18:48.683Z,11.53
2019-03-29T10:21:17.689Z,11.55
2019-03-29T10:23:47.477Z,11.62
2019-03-29T10:26:15.897Z,11.73
2019-03-29T10:28:44.363Z,11.83
2019-03-29T10:31:12.836Z,11.89
2019-03-29T10:33:41.375Z,11.96
2019-03-29T10:36:10.233Z,12.06
2019-03-29T10:38:38.740Z,12.32
2019-03-29T10:41:07.234Z,12.40
2019-03-29T10:43:35.882Z,12.56
2019-03-29T10:46:04.422Z,12.40
2019-03-29T10:48:33.258Z,12.32
2019-03-29T10:51:01.733Z,12.42
2019-03-29T10:53:30.203Z,12.60
2019-03-29T10:55:59.110Z,12.83
2019-03-29T10:58:28.004Z,12.92
2019-03-29T11:00:56.476Z,13.01
2019-03-29T11:03:28.418Z,12.97
2019-03-29T11:05:55.398Z,13.21
2019-03-29T11:08:23.834Z,13.17
2019-03-29T11:10:52.563Z,13.44
2019-03-29T11:13:20.944Z,13.35
2019-03-29T11:15:49.358Z,13.27
2019-03-29T11:18:17.800Z,13.34
2019-03-29T11:20:46.275Z,13.40
2019-03-29T11:23:14.907Z,13.33
2019-03-29T11:25:43.528Z,13.19
2019-03-29T11:28:12.042Z,13.07
2019-03-29T11:30:42.959Z,12.87
2019-03-29T11:33:10.757Z,12.54
2019-03-29T11:35:39.286Z,12.63
2019-03-29T11:38:07.835Z,12.65
2019-03-29T11:40:36.235Z,12.67
2019-03-29T11:43:04.692Z,12.60
2019-03-29T11:46:13.147Z,12.56
2019-03-29T11:48:41.540Z,12.48
2019-03-29T11:51:19.124Z,12.42
2019-03-29T11:54:01.628Z,12.47
2019-03-29T11:56:30.403Z,12.65
2019-03-29T12:01:47.000Z,12.74
2019-03-29T12:04:15.520Z,12.93
2019-03-29T12:06:44.025Z,13.00
2019-03-29T12:09:12.571Z,13.00
2019-03-29T12:11:40.957Z,13.01
2019-03-29T12:14:09.473Z,13.06
2019-03-29T12:16:37.950Z,13.19
2019-03-29T12:19:07.208Z,13.26
2019-03-29T12:21:35.580Z,13.16
2019-03-29T12:24:04.196Z,13.19
2019-03-29T12:26:32.656Z,13.23
2019-03-29T12:29:01.116Z,13.17
2019-03-29T12:31:29.579Z,13.10
2019-03-29T12:33:58.023Z,13.08
2019-03-29T12:36:30.704Z,12.81
2019-03-29T12:39:39.947Z,12.88
2019-03-29T12:42:09.035Z,12.86
2019-03-29T12:44:37.508Z,12.93
2019-03-29T12:47:06.084Z,12.68
2019-03-29T12:49:34.511Z,12.80
2019-03-29T12:52:02.995Z,12.81
2019-03-29T12:54:31.475Z,12.96
2019-03-29T12:57:00.001Z,13.00
2019-03-29T12:59:28.583Z,13.14
2019-03-29T13:01:57.083Z,13.13
2019-03-29T13:04:25.619Z,13.09
2019-03-29T13:06:54.074Z,13.03
2019-03-29T13:09:22.672Z,13.05
2019-03-29T13:11:51.159Z,12.81
2019-03-29T13:14:19.581Z,12.81
2019-03-29T13:16:48.370Z,12.70
2019-03-29T13:19:16.855Z,12.59
2019-03-29T13:21:45.322Z,12.49
2019-03-29T13:24:15.968Z,12.47
2019-03-29T13:26:44.066Z,12.53
2019-03-29T13:29:12.726Z,12.51
2019-03-29T13:31:41.318Z,12.48
2019-03-29T13:34:10.103Z,12.50
2019-03-29T13:36:38.890Z,12.56
2019-03-29T13:39:47.359Z,12.65
2019-03-29T13:42:15.798Z,12.70
2019-03-29T13:44:44.480Z,12.78
2019-03-29T13:47:13.171Z,12.74
2019-03-29T13:49:41.761Z,12.75
2019-03-29T13:52:10.240Z,12.82
2019-03-29T13:54:38.655Z,12.83
2019-03-29T13:57:07.138Z,12.75
2019-03-29T13:59:35.525Z,12.72
2019-03-29T14:02:04.063Z,12.76
2019-03-29T14:05:12.504Z,12.69
2019-03-29T14:07:40.969Z,12.75
2019-03-29T14:10:49.416Z,12.86
2019-03-29T14:14:01.427Z,12.89
2019-03-29T14:19:25.705Z,12.86
2019-03-29T14:21:53.014Z,12.87
2019-03-29T14:24:33.539Z,12.80
2019-03-29T14:26:51.884Z,12.77
2019-03-29T14:29:20.646Z,12.75
2019-03-29T14:32:11.095Z,12.74
2019-03-29T14:34:39.553Z,12.67
2019-03-29T14:37:08.116Z,12.64
2019-03-29T14:39:36.512Z,12.65
2019-03-29T14:42:05.283Z,12.63
2019-03-29T14:44:33.784Z,12.67
2019-03-29T14:47:02.242Z,12.63
2019-03-29T14:49:30.721Z,12.71
2019-03-29T14:51:59.185Z,12.64
2019-03-29T14:54:27.719Z,12.61
2019-03-29T14:56:56.276Z,12.64
2019-03-29T14:59:24.628Z,12.69
2019-03-29T15:01:53.124Z,12.70
2019-03-29T15:04:21.485Z,12.77
2019-03-29T15:06:50.025Z,12.90
2019-03-29T15:09:18.657Z,12.99
2019-03-29T15:11:47.194Z,12.94
2019-03-29T15:14:15.649Z,12.96
2019-03-29T15:16:44.075Z,13.05
2019-03-29T15:19:12.591Z,13.03
2019-03-29T15:21:41.146Z,13.03
2019-03-29T15:24:09.588Z,13.00
2019-03-29T15:26:38.114Z,13.03
2019-03-29T15:29:06.834Z,12.88
2019-03-29T15:31:35.250Z,12.77
2019-03-29T15:34:03.718Z,12.87
2019-03-29T15:36:32.166Z,12.78
2019-03-29T15:39:00.652Z,12.85
2019-03-29T15:41:29.064Z,12.77
2019-03-29T15:43:57.504Z,12.78
2019-03-29T15:46:26.025Z,12.77
2019-03-29T15:48:54.574Z,12.80
2019-03-29T15:51:22.947Z,12.80
2019-03-29T15:53:51.781Z,12.79
2019-03-29T15:56:20.672Z,12.72
2019-03-29T15:58:49.227Z,12.77
2019-03-29T16:01:17.802Z,12.74
2019-03-29T16:03:46.273Z,12.57
2019-03-29T16:06:15.007Z,12.64
2019-03-29T16:08:43.413Z,12.67
2019-03-29T16:11:17.126Z,12.79
2019-03-29T16:13:42.162Z,12.75
2019-03-29T16:16:10.639Z,12.75
2019-03-29T16:18:39.032Z,12.69
2019-03-29T16:21:07.432Z,12.49
2019-03-29T16:23:35.895Z,12.43
2019-03-29T16:26:04.268Z,12.43
2019-03-29T16:28:33.105Z,12.42
2019-03-29T16:31:01.624Z,12.41
2019-03-29T16:33:30.218Z,12.33
2019-03-29T16:35:58.753Z,12.32
2019-03-29T16:38:27.154Z,12.33
2019-03-29T16:40:55.679Z,12.32
2019-03-29T16:43:24.070Z,12.28
2019-03-29T16:45:52.583Z,12.25
2019-03-29T16:48:40.368Z,12.28
2019-03-29T16:51:08.866Z,12.16
2019-03-29T16:53:39.781Z,12.19
2019-03-29T16:56:07.666Z,12.20
2019-03-29T16:58:36.136Z,12.18
2019-03-29T17:01:04.642Z,12.22
2019-03-29T17:03:33.176Z,12.17
2019-03-29T17:06:01.832Z,12.15
2019-03-29T17:08:30.247Z,12.11
2019-03-29T17:10:58.649Z,12.06
2019-03-29T17:13:27.134Z,12.03
2019-03-29T17:16:01.774Z,12.08
2019-03-29T17:18:29.479Z,12.02
2019-03-29T17:20:56.719Z,12.02
2019-03-29T17:23:25.527Z,12.02
2019-03-29T17:25:54.356Z,11.99
2019-03-29T17:28:22.775Z,11.96
2019-03-29T17:33:46.052Z,11.91
2019-03-29T17:36:14.541Z,11.92
2019-03-29T17:38:43.061Z,11.89
2019-03-29T17:41:11.640Z,11.87
2019-03-29T17:43:40.310Z,11.86
2019-03-29T17:46:16.173Z,11.83
2019-03-29T17:48:39.011Z,11.82
2019-03-29T17:51:07.531Z,11.81
2019-03-29T17:53:36.176Z,11.78
2019-03-29T17:56:04.763Z,11.77
2019-03-29T17:58:33.159Z,11.76
2019-03-29T18:01:01.688Z,11.76
2019-03-29T18:03:30.513Z,11.75
2019-03-29T18:05:59.056Z,11.76
2019-03-29T18:08:27.482Z,11.75
2019-03-29T18:10:55.946Z,11.72
2019-03-29T18:13:24.434Z,11.70
2019-03-29T18:15:53.242Z,11.69
2019-03-29T18:18:21.688Z,11.68
2019-03-29T18:20:50.223Z,11.70
2019-03-29T18:23:18.661Z,11.66
2019-03-29T18:25:47.188Z,11.59
2019-03-29T18:28:15.695Z,11.54
2019-03-29T18:30:44.394Z,11.53
2019-03-29T18:33:12.872Z,11.47
2019-03-29T18:35:41.327Z,11.44
2019-03-29T18:38:49.758Z,11.42
2019-03-29T18:41:18.283Z,11.38
2019-03-29T18:43:47.217Z,11.31
2019-03-29T18:46:16.904Z,11.33
2019-03-29T18:48:45.719Z,11.30
2019-03-29T18:51:14.694Z,11.28
2019-03-29T18:53:43.209Z,11.25
2019-03-29T18:56:11.757Z,11.23
2019-03-29T18:58:40.661Z,11.22
2019-03-29T19:01:09.076Z,11.19
2019-03-29T19:03:37.786Z,11.16
2019-03-29T19:06:06.218Z,11.16
2019-03-29T19:08:34.714Z,11.12
2019-03-29T19:11:03.267Z,11.12
2019-03-29T19:13:31.843Z,11.10
2019-03-29T19:16:00.393Z,11.08
2019-03-29T19:18:28.880Z,11.07
2019-03-29T19:20:57.297Z,11.02
2019-03-29T19:23:25.780Z,11.02
2019-03-29T19:25:54.568Z,11.03
2019-03-29T19:28:23.127Z,10.99
2019-03-29T19:30:52.030Z,10.97
2019-03-29T19:33:20.501Z,10.98
2019-03-29T19:35:48.899Z,10.96
2019-03-29T19:38:17.397Z,10.97
2019-03-29T19:40:45.964Z,10.95
2019-03-29T19:43:14.550Z,10.94
2019-03-29T19:45:43.119Z,10.92
2019-03-29T19:51:06.102Z,10.90
2019-03-29T19:53:34.936Z,10.88
2019-03-29T19:56:03.454Z,10.86
2019-03-29T19:58:31.892Z,10.83
2019-03-29T20:01:00.490Z,10.82
2019-03-29T20:03:36.663Z,10.80
2019-03-29T20:06:05.297Z,10.79
2019-03-29T20:08:33.849Z,10.78
2019-03-29T20:11:02.316Z,10.75
2019-03-29T20:13:30.726Z,10.72
2019-03-29T20:15:59.171Z,10.68
2019-03-29T20:18:27.737Z,10.67
2019-03-29T20:20:56.234Z,10.61
2019-03-29T20:23:24.808Z,10.57
2019-03-29T20:26:33.470Z,10.51
2019-03-29T20:29:02.022Z,10.48
2019-03-29T20:32:10.425Z,10.45
2019-03-29T20:34:39.240Z,10.43
2019-03-29T20:37:09.045Z,10.43
2019-03-29T20:39:38.218Z,10.43
2019-03-29T20:42:06.748Z,10.36
2019-03-29T20:44:35.597Z,10.35
2019-03-29T20:47:04.078Z,10.35
2019-03-29T20:49:32.560Z,10.35
2019-03-29T20:52:01.028Z,10.34
2019-03-29T20:54:29.729Z,10.32
2019-03-29T20:56:58.511Z,10.32
2019-03-29T20:59:26.921Z,10.30
2019-03-29T21:01:55.378Z,10.26
2019-03-29T21:07:32.131Z,10.21
2019-03-29T21:10:00.518Z,10.19
2019-03-29T21:12:29.049Z,10.15
2019-03-29T21:14:57.591Z,10.12
2019-03-29T21:17:26.065Z,10.10
2019-03-29T21:19:54.636Z,10.11
2019-03-29T21:22:23.055Z,10.05
2019-03-29T21:24:51.508Z,10.00
2019-03-29T21:27:20.349Z,9.98
2019-03-29T21:29:48.887Z,9.95
2019-03-29T21:32:17.334Z,9.91
2019-03-29T21:34:45.796Z,9.83
2019-03-29T21:37:14.688Z,9.76
2019-03-29T21:39:43.240Z,9.72
2019-03-29T21:42:11.681Z,9.70
2019-03-29T21:44:40.325Z,9.71
2019-03-29T21:47:08.766Z,9.67
2019-03-29T21:49:37.602Z,9.69
2019-03-29T21:52:06.063Z,9.71
2019-03-29T21:54:34.545Z,9.71
2019-03-29T21:57:03.034Z,9.70
2019-03-29T21:59:31.499Z,9.70
2019-03-29T22:02:00.074Z,9.69
2019-03-29T22:04:28.563Z,9.73
2019-03-29T22:06:57.700Z,9.74
2019-03-29T22:09:36.355Z,9.71
2019-03-29T22:14:51.381Z,9.71
2019-03-29T22:17:19.897Z,9.73
2019-03-29T22:19:48.466Z,9.71
2019-03-29T22:22:17.003Z,9.69
2019-03-29T22:24:45.475Z,9.66
2019-03-29T22:27:14.299Z,9.65
2019-03-29T22:29:42.665Z,9.62
2019-03-29T22:32:11.152Z,9.59
2019-03-29T22:34:39.665Z,9.59
2019-03-29T22:37:08.671Z,9.58
2019-03-29T22:39:37.218Z,9.56
2019-03-29T22:42:05.749Z,9.54
2019-03-29T22:44:34.230Z,9.52
2019-03-29T22:47:02.771Z,9.48
2019-03-29T22:49:31.141Z,9.45
2019-03-29T22:51:59.608Z,9.41
2019-03-29T22:54:28.048Z,9.40
2019-03-29T22:56:56.535Z,9.34
2019-03-29T22:59:25.144Z,9.33
2019-03-29T23:01:53.633Z,9.31
2019-03-29T23:04:34.010Z,9.30
2019-03-29T23:06:52.439Z,9.31
2019-03-29T23:09:21.296Z,9.29
2019-03-29T23:11:49.775Z,9.28
2019-03-29T23:14:18.317Z,9.29
2019-03-29T23:16:46.761Z,9.30
2019-03-29T23:19:15.536Z,9.27
2019-03-29T23:21:43.983Z,9.27
2019-03-29T23:24:12.366Z,9.24
2019-03-29T23:26:41.540Z,9.24
2019-03-29T23:29:10.007Z,9.16
2019-03-29T23:31:58.246Z,9.10
2019-03-29T23:37:16.210Z,8.95
2019-03-29T23:39:45.002Z,8.87
2019-03-29T23:42:13.476Z,8.84
2019-03-29T23:44:41.856Z,8.85
2019-03-29T23:47:10.411Z,8.87
2019-03-29T23:49:39.309Z,8.78
2019-03-29T23:52:07.711Z,8.64
2019-03-29T23:54:36.081Z,8.52
2019-03-29T23:57:04.630Z,8.56
2019-03-29T23:59:33.065Z,8.58
